Time;durP1;ratioP1;P1;durP2;ratioP2;P2;SDS_P1;SDS_P2;PMS_P1;PMS_P2;Temp;Humidity;BMP_temperature;BMP_pressure;BME280_temperature;BME280_humidity;BME280_pressure;Samples;Min_cycle;Max_cycle;Signal;HPM_P1;HPM_P2
2023/04/29 00:00:01;;;;;;;26.30;18.77;;;11.40;91.40;;;;;;5051516;28;20070;-68
2023/04/29 00:02:27;;;;;;;26.13;18.75;;;11.40;91.40;;;;;;5051809;28;20112;-67
2023/04/29 00:04:53;;;;;;;25.08;16.95;;;11.40;91.50;;;;;;5051934;28;20060;-67
2023/04/29 00:07:19;;;;;;;25.63;17.27;;;11.40;91.40;;;;;;5051994;28;20021;-67
2023/04/29 00:09:44;;;;;;;25.10;17.40;;;11.40;91.40;;;;;;5051560;28;20451;-66
2023/04/29 00:12:10;;;;;;;24.20;17.23;;;11.40;91.40;;;;;;5051522;28;20033;-68
2023/04/29 00:14:36;;;;;;;24.63;16.45;;;11.30;91.40;;;;;;5051288;28;20021;-67
2023/04/29 00:17:02;;;;;;;24.52;16.95;;;11.30;91.50;;;;;;5051641;28;20083;-68
2023/04/29 00:19:28;;;;;;;23.30;15.90;;;11.40;91.50;;;;;;5051190;28;20108;-68
2023/04/29 00:21:53;;;;;;;23.00;15.82;;;11.40;91.60;;;;;;5050386;28;20109;-67
2023/04/29 00:24:19;;;;;;;26.98;18.17;;;11.40;91.50;;;;;;5051014;28;20074;-67
2023/04/29 00:26:45;;;;;;;24.83;16.52;;;11.40;91.60;;;;;;5051026;28;20047;-65
2023/04/29 00:29:11;;;;;;;25.80;18.25;;;11.40;91.60;;;;;;5051038;28;20055;-67
2023/04/29 00:31:36;;;;;;;28.63;19.02;;;11.40;91.60;;;;;;5050921;28;20108;-67
2023/04/29 00:34:02;;;;;;;29.55;20.65;;;11.30;91.60;;;;;;5051018;28;20017;-68
2023/04/29 00:36:28;;;;;;;23.30;17.38;;;11.30;91.70;;;;;;5050661;28;20025;-67
2023/04/29 00:38:54;;;;;;;24.13;18.10;;;11.30;91.80;;;;;;5050947;28;20096;-66
2023/04/29 00:41:20;;;;;;;24.70;17.73;;;11.20;91.90;;;;;;5050735;28;20078;-67
2023/04/29 00:43:45;;;;;;;24.90;17.00;;;11.20;91.90;;;;;;5050636;28;20498;-68
2023/04/29 00:46:11;;;;;;;24.35;17.33;;;11.30;92.00;;;;;;5050932;28;20021;-68
2023/04/29 00:48:36;;;;;;;28.23;19.63;;;11.30;92.00;;;;;;5050702;28;20044;-67
2023/04/29 00:51:04;;;;;;;23.48;15.95;;;11.20;92.00;;;;;;5050775;28;20025;-65
2023/04/29 00:53:30;;;;;;;25.58;16.70;;;11.20;92.10;;;;;;5050711;28;20028;-67
2023/04/29 00:55:55;;;;;;;24.23;16.73;;;11.20;92.10;;;;;;5050478;28;20454;-66
2023/04/29 00:58:22;;;;;;;24.52;16.88;;;11.20;92.10;;;;;;5050380;28;20029;-67
2023/04/29 01:00:48;;;;;;;26.70;18.08;;;11.20;92.20;;;;;;5049188;28;20494;-68
2023/04/29 01:03:14;;;;;;;22.27;15.70;;;11.20;92.20;;;;;;5050415;28;20100;-67
2023/04/29 01:05:40;;;;;;;22.40;15.65;;;11.20;92.20;;;;;;5050790;28;20096;-67
2023/04/29 01:08:51;;;;;;;21.02;13.98;;;11.30;92.20;;;;;;5050329;28;20482;-67
2023/04/29 01:11:22;;;;;;;23.92;15.77;;;11.30;92.10;;;;;;5039728;28;20044;-67
2023/04/29 01:13:58;;;;;;;21.60;15.40;;;11.30;92.10;;;;;;5050370;28;20051;-67
2023/04/29 01:16:33;;;;;;;21.88;14.93;;;11.30;92.00;;;;;;5050304;28;20025;-66
2023/04/29 01:19:06;;;;;;;20.63;13.93;;;11.30;92.00;;;;;;5050240;28;20033;-66
2023/04/29 01:21:31;;;;;;;23.23;16.45;;;11.30;92.00;;;;;;5050120;28;20071;-67
2023/04/29 01:23:57;;;;;;;21.10;14.27;;;11.30;92.00;;;;;;5050085;28;20021;-67
2023/04/29 01:26:23;;;;;;;21.95;14.32;;;11.30;92.00;;;;;;5050020;28;20072;-66
2023/04/29 01:28:52;;;;;;;21.65;15.25;;;11.30;92.10;;;;;;5049729;28;20472;-67
2023/04/29 01:31:34;;;;;;;18.38;13.20;;;11.30;92.00;;;;;;5049978;28;20025;-67
2023/04/29 01:34:25;;;;;;;19.55;13.93;;;11.30;92.10;;;;;;5050120;28;20055;-67
2023/04/29 01:37:06;;;;;;;21.90;15.10;;;11.30;92.00;;;;;;5050050;28;20446;-66
2023/04/29 01:39:44;;;;;;;17.65;12.75;;;11.20;92.00;;;;;;5049991;28;20383;-67
2023/04/29 01:42:48;;;;;;;23.95;16.73;;;11.30;92.10;;;;;;5049868;28;20483;-67
2023/04/29 01:45:17;;;;;;;23.25;15.02;;;11.20;92.00;;;;;;5048458;28;20471;-66
2023/04/29 01:47:45;;;;;;;25.40;16.23;;;11.20;92.10;;;;;;5050204;28;20028;-66
2023/04/29 01:50:10;;;;;;;24.55;15.63;;;11.10;92.10;;;;;;5049891;28;20025;-66
2023/04/29 01:52:36;;;;;;;22.40;14.98;;;11.10;92.10;;;;;;5050068;28;20083;-67
2023/04/29 01:55:02;;;;;;;20.80;14.10;;;11.20;92.20;;;;;;5049861;28;20027;-66
2023/04/29 01:57:28;;;;;;;25.50;15.93;;;11.10;92.10;;;;;;5049767;28;20043;-66
2023/04/29 01:59:54;;;;;;;21.67;14.65;;;11.20;92.10;;;;;;5049590;28;20096;-65
2023/04/29 02:02:22;;;;;;;22.77;14.90;;;11.20;92.10;;;;;;5049806;28;20018;-66
2023/04/29 02:04:48;;;;;;;22.50;14.82;;;11.20;92.10;;;;;;5049966;28;20040;-67
2023/04/29 02:07:14;;;;;;;21.52;14.02;;;11.10;92.10;;;;;;5049632;28;20071;-67
2023/04/29 02:09:39;;;;;;;20.27;13.70;;;11.10;92.10;;;;;;5049611;28;20025;-66
2023/04/29 02:12:05;;;;;;;18.35;12.60;;;11.20;92.20;;;;;;5049658;28;20021;-67
2023/04/29 02:14:31;;;;;;;20.83;13.82;;;11.20;92.10;;;;;;5049527;28;20476;-67
2023/04/29 02:16:56;;;;;;;16.17;11.48;;;11.10;92.10;;;;;;5048215;28;20469;-66
2023/04/29 02:19:22;;;;;;;16.77;11.55;;;11.10;92.20;;;;;;5049694;28;20031;-66
2023/04/29 02:21:47;;;;;;;18.85;13.15;;;11.20;92.10;;;;;;5049513;28;20060;-67
2023/04/29 02:24:13;;;;;;;17.50;13.05;;;11.20;92.00;;;;;;5049626;28;20025;-67
2023/04/29 02:26:38;;;;;;;18.15;12.98;;;11.20;92.00;;;;;;5049322;28;20565;-66
2023/04/29 02:29:04;;;;;;;21.02;13.05;;;11.20;92.00;;;;;;5049574;28;20039;-67
2023/04/29 02:31:29;;;;;;;18.45;13.02;;;11.20;92.00;;;;;;5049526;28;20029;-66
2023/04/29 02:33:55;;;;;;;16.67;11.88;;;11.30;92.00;;;;;;5047921;28;20108;-67
2023/04/29 02:36:21;;;;;;;17.88;12.27;;;11.30;91.90;;;;;;5048567;28;20021;-66
2023/04/29 02:38:49;;;;;;;18.90;12.32;;;11.30;91.90;;;;;;5049242;28;20061;-67
2023/04/29 02:41:18;;;;;;;17.80;12.27;;;11.30;91.90;;;;;;5049782;28;20113;-64
2023/04/29 02:43:43;;;;;;;17.60;12.10;;;11.30;91.80;;;;;;5051015;28;20040;-67
2023/04/29 02:46:09;;;;;;;18.45;13.77;;;11.30;91.80;;;;;;5052152;28;20021;-66
2023/04/29 02:48:36;;;;;;;17.35;12.13;;;11.20;91.80;;;;;;5053099;28;20033;-66
2023/04/29 02:51:02;;;;;;;18.65;12.13;;;11.20;91.90;;;;;;5052009;28;20079;-67
2023/04/29 02:53:27;;;;;;;21.45;13.25;;;11.20;91.90;;;;;;5052777;28;20025;-68
2023/04/29 02:55:53;;;;;;;17.45;12.13;;;11.20;91.90;;;;;;5052981;28;20029;-68
2023/04/29 02:58:18;;;;;;;18.80;12.52;;;11.20;91.90;;;;;;5053148;28;20220;-67
2023/04/29 03:00:44;;;;;;;17.23;11.75;;;11.20;91.90;;;;;;5053096;28;20017;-68
2023/04/29 03:03:10;;;;;;;14.35;9.63;;;11.20;91.90;;;;;;5052717;28;20025;-66
2023/04/29 03:05:35;;;;;;;19.73;12.18;;;11.20;91.90;;;;;;5052880;28;20440;-66
2023/04/29 03:08:03;;;;;;;16.77;10.68;;;11.20;91.80;;;;;;5052459;28;20047;-67
2023/04/29 03:10:29;;;;;;;16.15;11.32;;;11.20;91.80;;;;;;5052499;28;20037;-68
2023/04/29 03:12:54;;;;;;;15.77;11.48;;;11.20;91.80;;;;;;5050995;28;20272;-67
2023/04/29 03:15:20;;;;;;;18.10;12.65;;;11.20;91.80;;;;;;5051189;28;20479;-67
2023/04/29 03:17:46;;;;;;;19.35;13.43;;;11.20;91.80;;;;;;5052375;28;20291;-66
2023/04/29 03:20:12;;;;;;;18.58;12.77;;;11.20;91.70;;;;;;5052417;28;20043;-67
2023/04/29 03:22:37;;;;;;;21.00;13.88;;;11.20;91.80;;;;;;5052294;28;20024;-66
2023/04/29 03:25:03;;;;;;;16.75;11.48;;;11.20;91.80;;;;;;5052127;28;20427;-66
2023/04/29 03:27:29;;;;;;;16.30;11.68;;;11.20;91.80;;;;;;5050669;28;20055;-67
2023/04/29 03:29:55;;;;;;;20.42;13.70;;;11.10;91.80;;;;;;5052585;28;20021;-67
2023/04/29 03:32:21;;;;;;;16.90;11.43;;;11.10;91.70;;;;;;5052455;28;20024;-68
2023/04/29 03:34:48;;;;;;;18.98;13.23;;;11.10;91.70;;;;;;5052159;28;20593;-66
2023/04/29 03:37:15;;;;;;;17.98;12.65;;;11.10;91.70;;;;;;5052057;28;20031;-67
2023/04/29 03:39:41;;;;;;;18.75;12.07;;;11.10;91.70;;;;;;5050636;28;20106;-66
2023/04/29 03:42:06;;;;;;;18.35;13.05;;;11.10;91.70;;;;;;5051853;28;20541;-67
2023/04/29 03:44:32;;;;;;;19.33;12.68;;;11.10;91.70;;;;;;5051772;28;20380;-65
2023/04/29 03:46:58;;;;;;;19.35;12.40;;;11.10;91.70;;;;;;5052064;28;20021;-66
2023/04/29 03:49:24;;;;;;;18.08;11.88;;;11.10;92.00;;;;;;5051793;28;20047;-66
2023/04/29 03:51:50;;;;;;;18.00;11.75;;;11.10;91.70;;;;;;5051907;28;20114;-66
2023/04/29 03:54:15;;;;;;;17.38;11.60;;;11.10;91.70;;;;;;5051490;28;20491;-65
2023/04/29 03:56:42;;;;;;;18.77;12.13;;;11.10;91.70;;;;;;5051479;28;20479;-65
2023/04/29 03:59:07;;;;;;;18.98;13.23;;;11.10;91.60;;;;;;5051707;28;20483;-66
2023/04/29 04:01:33;;;;;;;18.67;12.35;;;11.10;91.70;;;;;;5051401;28;20053;-66
2023/04/29 04:03:59;;;;;;;21.38;13.88;;;11.10;91.70;;;;;;5051835;28;19983;-66
2023/04/29 04:06:25;;;;;;;18.00;12.60;;;11.00;91.70;;;;;;5051920;28;20024;-67
2023/04/29 04:08:50;;;;;;;19.55;13.18;;;11.00;91.70;;;;;;5051424;28;20272;-66
2023/04/29 04:11:16;;;;;;;19.50;13.45;;;11.00;91.70;;;;;;5051317;28;20031;-66
2023/04/29 04:13:45;;;;;;;22.40;14.05;;;10.90;91.80;;;;;;5051390;28;20044;-66
2023/04/29 04:16:10;;;;;;;18.55;13.13;;;11.00;91.80;;;;;;5051328;28;20017;-67
2023/04/29 04:18:37;;;;;;;19.75;12.68;;;10.90;92.10;;;;;;5051275;28;20085;-68
2023/04/29 04:21:07;;;;;;;17.98;12.60;;;10.90;91.80;;;;;;5051181;28;20052;-67
2023/04/29 04:23:32;;;;;;;17.00;11.75;;;10.90;91.80;;;;;;5051060;28;20052;-65
2023/04/29 04:25:58;;;;;;;17.63;12.52;;;11.00;91.80;;;;;;5050971;28;20060;-66
2023/04/29 04:28:23;;;;;;;21.08;13.68;;;11.00;91.70;;;;;;5051165;28;20523;-67
2023/04/29 04:30:49;;;;;;;19.00;13.43;;;11.00;91.70;;;;;;5051285;28;20055;-67
2023/04/29 04:33:15;;;;;;;17.98;12.38;;;10.90;91.70;;;;;;5050919;28;20519;-66
2023/04/29 04:35:41;;;;;;;17.73;11.93;;;10.90;91.70;;;;;;5051015;28;20028;-68
2023/04/29 04:38:08;;;;;;;17.27;11.68;;;10.90;91.70;;;;;;5050601;28;20025;-67
2023/04/29 04:40:33;;;;;;;15.63;11.60;;;11.00;91.80;;;;;;5050920;28;20025;-67
2023/04/29 04:42:59;;;;;;;17.17;12.43;;;10.90;91.70;;;;;;5049443;28;20021;-67
2023/04/29 04:45:27;;;;;;;17.08;12.48;;;10.90;91.70;;;;;;5050917;28;20411;-67
2023/04/29 04:47:52;;;;;;;14.43;10.90;;;10.90;91.70;;;;;;5050485;28;20021;-67
2023/04/29 04:50:19;;;;;;;16.25;12.00;;;10.90;91.70;;;;;;5050906;28;20025;-68
2023/04/29 04:52:45;;;;;;;17.27;12.15;;;10.90;91.60;;;;;;5050335;28;20123;-66
2023/04/29 04:55:10;;;;;;;16.83;12.18;;;10.90;91.50;;;;;;5049405;28;20128;-67
2023/04/29 04:57:36;;;;;;;16.92;12.85;;;10.90;91.50;;;;;;5050369;28;20384;-68
2023/04/29 05:00:02;;;;;;;16.92;11.90;;;10.90;91.50;;;;;;5050640;28;20044;-68
2023/04/29 05:02:28;;;;;;;19.00;12.90;;;10.90;91.50;;;;;;5050476;28;20428;-68
2023/04/29 05:04:54;;;;;;;16.23;12.48;;;10.90;91.40;;;;;;5050367;28;20100;-68
2023/04/29 05:07:19;;;;;;;15.65;12.25;;;10.90;91.40;;;;;;5048651;28;20013;-67
2023/04/29 05:09:45;;;;;;;16.35;11.05;;;10.90;91.40;;;;;;5050391;28;20067;-68
2023/04/29 05:12:11;;;;;;;14.35;10.90;;;10.90;91.40;;;;;;5050494;28;20029;-68
2023/04/29 05:14:36;;;;;;;15.45;10.93;;;11.00;91.30;;;;;;5050462;28;20021;-68
2023/04/29 05:17:02;;;;;;;15.85;11.35;;;11.00;91.30;;;;;;5049843;28;20032;-68
2023/04/29 05:19:27;;;;;;;14.20;10.15;;;11.00;91.20;;;;;;5050608;28;20120;-68
2023/04/29 05:21:53;;;;;;;15.18;11.20;;;11.10;91.20;;;;;;5050743;28;20025;-67
2023/04/29 05:24:19;;;;;;;13.38;10.70;;;11.10;91.10;;;;;;5050885;28;20024;-68
2023/04/29 05:26:44;;;;;;;15.35;11.38;;;11.10;91.00;;;;;;5050496;28;20036;-68
2023/04/29 05:29:10;;;;;;;13.55;10.93;;;11.10;91.00;;;;;;5050252;28;20029;-67
2023/04/29 05:31:37;;;;;;;16.63;10.90;;;11.20;91.00;;;;;;5050267;28;20073;-65
2023/04/29 05:34:06;;;;;;;14.52;11.20;;;11.20;91.00;;;;;;5050203;28;20241;-67
2023/04/29 05:36:31;;;;;;;16.42;11.98;;;11.20;90.90;;;;;;5049911;28;20064;-67
2023/04/29 05:38:57;;;;;;;16.88;12.25;;;11.20;90.80;;;;;;5050296;28;20061;-68
2023/04/29 05:41:23;;;;;;;16.38;11.30;;;11.30;90.80;;;;;;5050210;28;20083;-68
2023/04/29 05:43:49;;;;;;;17.17;12.65;;;11.30;90.70;;;;;;5050042;28;20021;-67
2023/04/29 05:46:15;;;;;;;15.35;10.65;;;11.30;90.70;;;;;;5050257;28;20036;-68
2023/04/29 05:48:41;;;;;;;17.42;11.50;;;11.20;90.70;;;;;;5049934;28;20021;-67
2023/04/29 05:51:06;;;;;;;15.73;11.35;;;11.30;90.70;;;;;;5049830;28;20434;-68
2023/04/29 05:53:32;;;;;;;17.00;12.23;;;11.30;90.60;;;;;;5050052;28;20021;-68
2023/04/29 05:55:57;;;;;;;14.98;11.35;;;11.30;90.60;;;;;;5050058;28;20083;-67
2023/04/29 05:58:24;;;;;;;16.55;13.02;;;11.30;90.60;;;;;;5049914;28;20021;-66
2023/04/29 06:00:50;;;;;;;15.32;10.77;;;11.30;90.50;;;;;;5050081;28;20078;-67
2023/04/29 06:03:16;;;;;;;14.95;11.68;;;11.40;90.60;;;;;;5049939;28;20426;-66
2023/04/29 06:05:41;;;;;;;16.98;13.15;;;11.40;90.50;;;;;;5049628;28;20020;-68
2023/04/29 06:08:07;;;;;;;17.80;12.70;;;11.40;90.50;;;;;;5049781;28;20078;-68
2023/04/29 06:10:32;;;;;;;17.27;12.48;;;11.40;90.50;;;;;;5048721;28;20023;-68
2023/04/29 06:12:58;;;;;;;16.33;11.90;;;11.40;90.40;;;;;;5049643;28;20025;-67
2023/04/29 06:15:24;;;;;;;18.20;13.65;;;11.40;90.40;;;;;;5049632;28;20033;-66
2023/04/29 06:17:49;;;;;;;16.70;12.95;;;11.40;90.30;;;;;;5050336;28;20029;-67
2023/04/29 06:20:15;;;;;;;17.67;12.65;;;11.40;90.30;;;;;;5053380;28;20033;-68
2023/04/29 06:22:41;;;;;;;15.38;12.18;;;11.40;90.30;;;;;;5053432;28;20093;-68
2023/04/29 06:25:06;;;;;;;15.20;11.50;;;11.40;90.20;;;;;;5053497;28;20387;-67
2023/04/29 06:27:32;;;;;;;16.98;11.55;;;11.50;90.20;;;;;;5052162;28;20029;-68
2023/04/29 06:29:57;;;;;;;16.58;11.35;;;11.60;90.20;;;;;;5053454;28;20028;-67
2023/04/29 06:32:23;;;;;;;16.65;12.70;;;11.60;90.10;;;;;;5053688;28;20029;-67
2023/04/29 06:34:49;;;;;;;13.40;11.20;;;11.60;90.00;;;;;;5053130;28;20025;-68
2023/04/29 06:37:14;;;;;;;17.63;12.52;;;11.70;90.00;;;;;;5053160;28;20103;-69
2023/04/29 06:39:40;;;;;;;16.95;12.60;;;11.60;89.90;;;;;;5053211;28;20025;-69
2023/04/29 06:42:06;;;;;;;15.88;12.15;;;11.60;89.80;;;;;;5053110;28;20040;-68
2023/04/29 06:44:31;;;;;;;17.27;12.02;;;11.60;89.80;;;;;;5051666;28;20021;-67
2023/04/29 06:46:57;;;;;;;16.60;11.95;;;11.70;89.80;;;;;;5053002;28;20083;-68
2023/04/29 06:49:22;;;;;;;17.25;12.63;;;11.70;89.60;;;;;;5052823;28;20025;-66
2023/04/29 06:51:48;;;;;;;15.40;11.82;;;11.70;90.00;;;;;;5052984;28;20025;-69
2023/04/29 06:54:13;;;;;;;16.33;12.57;;;11.70;89.40;;;;;;5052899;28;20060;-65
2023/04/29 06:56:39;;;;;;;17.00;12.35;;;11.80;89.30;;;;;;5052873;28;20091;-66
2023/04/29 06:59:05;;;;;;;17.45;11.80;;;11.80;89.10;;;;;;5052953;28;20028;-66
2023/04/29 07:01:30;;;;;;;16.23;12.50;;;11.90;88.90;;;;;;5052886;28;20021;-67
2023/04/29 07:03:56;;;;;;;15.60;10.70;;;11.90;88.60;;;;;;5052444;28;20086;-68
2023/04/29 07:06:21;;;;;;;15.55;11.20;;;11.90;88.50;;;;;;5052707;28;20017;-67
2023/04/29 07:08:47;;;;;;;15.50;10.98;;;12.00;88.30;;;;;;5051112;28;20029;-67
2023/04/29 07:11:13;;;;;;;15.60;11.32;;;12.10;88.10;;;;;;5052483;28;20029;-66
2023/04/29 07:13:38;;;;;;;14.93;11.48;;;12.10;87.80;;;;;;5052259;28;20086;-68
2023/04/29 07:16:04;;;;;;;18.02;11.85;;;12.20;87.60;;;;;;5052383;28;20032;-66
2023/04/29 07:18:30;;;;;;;14.82;9.55;;;12.20;87.20;;;;;;5052370;28;20029;-67
2023/04/29 07:21:00;;;;;;;18.20;12.23;;;12.20;87.20;;;;;;5052178;28;20024;-66
2023/04/29 07:23:26;;;;;;;14.48;10.40;;;12.30;87.00;;;;;;5052406;28;20068;-67
2023/04/29 07:25:51;;;;;;;14.27;10.80;;;12.30;86.80;;;;;;5052379;28;20534;-66
2023/04/29 07:28:17;;;;;;;15.30;10.60;;;12.40;86.60;;;;;;5052243;28;20053;-70
2023/04/29 07:30:42;;;;;;;14.73;10.70;;;12.50;86.20;;;;;;5050247;28;20025;-67
2023/04/29 07:33:09;;;;;;;16.92;10.70;;;12.50;85.90;;;;;;5052114;28;20032;-67
2023/04/29 07:35:34;;;;;;;14.90;11.65;;;12.60;85.70;;;;;;5051974;28;20025;-67
2023/04/29 07:38:00;;;;;;;13.75;10.18;;;12.70;85.20;;;;;;5052046;28;20025;-67
2023/04/29 07:40:25;;;;;;;16.30;11.50;;;12.80;85.00;;;;;;5052014;28;20029;-68
2023/04/29 07:42:51;;;;;;;14.40;10.07;;;12.80;84.20;;;;;;5050749;28;20082;-67
2023/04/29 07:45:16;;;;;;;13.70;10.18;;;12.90;84.00;;;;;;5051997;28;20024;-67
2023/04/29 07:47:42;;;;;;;16.35;10.05;;;13.00;83.80;;;;;;5052344;28;20078;-67
2023/04/29 07:50:08;;;;;;;14.82;10.27;;;13.00;83.50;;;;;;5052407;28;20337;-67
2023/04/29 07:52:33;;;;;;;12.32;9.95;;;13.10;83.10;;;;;;5051917;28;20068;-67
2023/04/29 07:54:59;;;;;;;13.98;10.68;;;13.00;82.60;;;;;;5052020;28;20032;-67
2023/04/29 07:57:24;;;;;;;15.82;10.30;;;13.10;82.10;;;;;;5052068;28;20164;-66
2023/04/29 07:59:52;;;;;;;13.65;9.02;;;13.00;81.70;;;;;;5052126;28;20021;-68
2023/04/29 08:02:17;;;;;;;12.80;9.30;;;13.10;81.70;;;;;;5051539;28;20032;-67
2023/04/29 08:04:43;;;;;;;13.40;9.93;;;13.30;81.70;;;;;;5051697;28;20029;-66
2023/04/29 08:07:09;;;;;;;10.82;8.20;;;13.40;81.30;;;;;;5051428;28;20422;-68
2023/04/29 08:09:34;;;;;;;13.77;10.00;;;13.50;80.90;;;;;;5051733;28;20021;-68
2023/04/29 08:12:01;;;;;;;13.93;9.30;;;13.50;80.20;;;;;;5051325;28;20387;-68
2023/04/29 08:14:26;;;;;;;13.85;8.95;;;13.50;80.20;;;;;;5051879;28;20269;-68
2023/04/29 08:16:53;;;;;;;11.70;8.10;;;13.50;79.80;;;;;;5051314;28;20032;-67
2023/04/29 08:19:20;;;;;;;13.82;9.30;;;13.50;79.70;;;;;;5049857;28;20057;-68
2023/04/29 08:21:46;;;;;;;13.13;9.48;;;13.50;79.20;;;;;;5051027;28;20067;-66
2023/04/29 08:24:12;;;;;;;13.65;9.18;;;13.50;79.10;;;;;;5050941;28;20025;-66
2023/04/29 08:26:40;;;;;;;11.00;7.45;;;13.70;79.00;;;;;;5051035;28;20029;-67
2023/04/29 08:29:05;;;;;;;8.93;6.88;;;13.70;78.80;;;;;;5050779;28;20020;-67
2023/04/29 08:31:31;;;;;;;12.18;8.88;;;13.90;78.70;;;;;;5051130;28;20115;-68
2023/04/29 08:33:57;;;;;;;12.85;8.90;;;13.90;78.70;;;;;;5050531;28;20388;-67
2023/04/29 08:36:23;;;;;;;11.55;8.02;;;14.00;77.50;;;;;;5051131;28;20491;-68
2023/04/29 08:38:51;;;;;;;11.80;8.48;;;14.10;77.10;;;;;;5050719;28;20031;-67
2023/04/29 08:41:17;;;;;;;11.02;8.35;;;14.10;76.80;;;;;;5050214;28;20036;-67
2023/04/29 08:43:42;;;;;;;9.93;7.95;;;14.30;76.40;;;;;;5049248;28;20029;-67
2023/04/29 08:46:09;;;;;;;10.85;7.70;;;14.30;75.80;;;;;;5051015;28;20029;-67
2023/04/29 08:48:36;;;;;;;11.00;8.38;;;14.40;75.50;;;;;;5050316;28;20021;-67
2023/04/29 08:51:02;;;;;;;12.73;8.93;;;14.60;74.60;;;;;;5049215;28;20036;-68
2023/04/29 08:53:28;;;;;;;9.88;7.60;;;14.50;73.40;;;;;;5050660;28;20016;-67
2023/04/29 08:55:56;;;;;;;11.07;7.10;;;14.50;73.30;;;;;;5050320;28;20021;-68
2023/04/29 08:58:25;;;;;;;10.82;7.50;;;14.60;73.10;;;;;;5049290;28;20021;-66
2023/04/29 09:00:51;;;;;;;10.27;7.72;;;14.70;73.00;;;;;;5050333;28;20506;-66
2023/04/29 09:03:24;;;;;;;10.63;6.60;;;14.80;72.80;;;;;;5049176;28;20018;-66
2023/04/29 09:05:54;;;;;;;10.95;8.15;;;15.10;72.50;;;;;;5050624;28;20028;-67
2023/04/29 09:08:22;;;;;;;8.93;7.53;;;15.10;71.00;;;;;;5050538;28;20025;-67
2023/04/29 09:10:49;;;;;;;8.35;6.22;;;15.20;70.50;;;;;;5050710;28;20467;-67
2023/04/29 09:13:29;;;;;;;10.95;7.22;;;15.30;70.60;;;;;;5050221;28;20420;-67
2023/04/29 09:15:55;;;;;;;9.80;6.90;;;15.50;70.40;;;;;;5050391;28;20024;-66
2023/04/29 09:18:42;;;;;;;8.00;6.20;;;15.50;70.10;;;;;;5048860;28;20028;-67
2023/04/29 09:21:26;;;;;;;6.78;5.45;;;15.40;69.90;;;;;;5050183;28;20018;-67
2023/04/29 09:23:55;;;;;;;8.25;6.75;;;15.50;70.30;;;;;;5050083;28;20060;-67
2023/04/29 09:26:22;;;;;;;8.98;6.45;;;15.60;70.00;;;;;;5050021;28;20039;-66
2023/04/29 09:29:17;;;;;;;9.20;6.68;;;15.60;69.30;;;;;;5048849;28;20497;-67
2023/04/29 09:31:43;;;;;;;8.57;5.93;;;15.60;68.60;;;;;;5026192;28;20120;-67
2023/04/29 09:34:10;;;;;;;8.15;5.43;;;15.40;67.90;;;;;;5029984;28;20198;-67
2023/04/29 09:36:39;;;;;;;8.55;5.88;;;15.40;68.30;;;;;;5030065;28;20072;-67
2023/04/29 09:39:10;;;;;;;8.80;5.70;;;15.60;68.60;;;;;;5030258;28;20029;-67
2023/04/29 09:41:39;;;;;;;7.97;5.80;;;15.80;67.50;;;;;;5030319;28;20434;-67
2023/04/29 09:44:06;;;;;;;7.28;5.35;;;16.00;67.60;;;;;;5030124;28;20476;-67
2023/04/29 09:46:33;;;;;;;6.82;4.72;;;16.20;67.10;;;;;;5029918;28;20104;-65
2023/04/29 09:48:59;;;;;;;7.15;5.07;;;16.20;66.90;;;;;;5030129;28;20014;-67
2023/04/29 09:51:25;;;;;;;7.65;5.43;;;16.30;66.70;;;;;;5030454;28;20053;-67
2023/04/29 09:53:50;;;;;;;9.60;5.32;;;16.20;65.50;;;;;;5032688;28;20064;-68
2023/04/29 09:56:16;;;;;;;6.57;5.00;;;16.20;65.60;;;;;;5034100;28;20109;-67
2023/04/29 09:58:41;;;;;;;7.97;5.32;;;16.10;65.70;;;;;;5034034;28;20029;-69
2023/04/29 10:01:08;;;;;;;5.82;4.72;;;16.00;65.60;;;;;;5033976;28;20443;-68
2023/04/29 10:03:36;;;;;;;8.30;5.15;;;16.00;66.00;;;;;;5033774;28;20025;-68
2023/04/29 10:06:04;;;;;;;7.28;4.80;;;15.90;66.00;;;;;;5034091;28;20021;-69
2023/04/29 10:08:30;;;;;;;5.40;4.15;;;15.80;66.20;;;;;;5033970;28;20506;-68
2023/04/29 10:10:59;;;;;;;7.45;5.10;;;15.80;66.50;;;;;;5034349;28;20048;-68
2023/04/29 10:13:27;;;;;;;7.05;4.95;;;15.80;66.00;;;;;;5015903;28;20029;-68
2023/04/29 10:16:05;;;;;;;5.32;4.18;;;15.80;66.10;;;;;;5033691;28;20109;-68
2023/04/29 10:18:39;;;;;;;7.60;4.90;;;15.90;66.30;;;;;;5033686;28;20030;-68
2023/04/29 10:21:08;;;;;;;7.20;5.35;;;15.80;65.50;;;;;;5034238;28;20033;-67
2023/04/29 10:23:35;;;;;;;8.43;4.88;;;15.90;65.10;;;;;;5033632;28;20071;-67
2023/04/29 10:26:02;;;;;;;6.30;4.60;;;15.70;64.60;;;;;;5033821;28;20034;-69
2023/04/29 10:28:31;;;;;;;4.80;3.97;;;15.70;64.90;;;;;;5034097;28;20793;-68
2023/04/29 10:31:02;;;;;;;5.75;3.90;;;15.70;65.40;;;;;;5033926;28;20025;-68
2023/04/29 10:33:31;;;;;;;7.35;4.55;;;15.70;65.60;;;;;;5033691;28;20030;-67
2023/04/29 10:35:59;;;;;;;5.30;3.72;;;15.60;65.50;;;;;;5033482;28;20053;-68
2023/04/29 10:38:32;;;;;;;6.03;4.10;;;15.50;65.60;;;;;;5033487;28;20083;-68
2023/04/29 10:41:02;;;;;;;4.50;3.45;;;15.50;65.80;;;;;;5033180;28;20030;-66
2023/04/29 10:43:28;;;;;;;4.93;3.80;;;15.60;66.00;;;;;;5033334;28;20022;-68
2023/04/29 10:46:16;;;;;;;5.70;3.80;;;15.70;65.80;;;;;;5033129;28;20029;-67
2023/04/29 10:48:45;;;;;;;4.85;3.28;;;15.80;65.30;;;;;;5033225;28;20078;-68
2023/04/29 10:51:11;;;;;;;5.47;3.83;;;15.80;65.30;;;;;;5033035;28;20029;-69
2023/04/29 10:53:57;;;;;;;5.78;4.00;;;15.80;64.80;;;;;;5033088;28;20033;-68
2023/04/29 10:56:38;;;;;;;6.43;4.40;;;15.70;64.10;;;;;;5033151;28;20068;-67
2023/04/29 10:59:04;;;;;;;5.55;3.40;;;15.60;64.30;;;;;;5032938;28;20032;-67
2023/04/29 11:01:40;;;;;;;6.35;3.90;;;15.80;64.80;;;;;;5032859;28;20057;-66
2023/04/29 11:04:05;;;;;;;5.18;3.90;;;16.00;64.50;;;;;;5032362;28;20030;-67
2023/04/29 11:06:34;;;;;;;4.93;3.50;;;16.20;64.10;;;;;;5032569;28;20495;-66
2023/04/29 11:09:17;;;;;;;7.25;4.50;;;16.30;63.90;;;;;;5032786;28;20100;-67
2023/04/29 11:11:56;;;;;;;5.45;3.90;;;16.40;63.10;;;;;;5032676;28;20018;-65
2023/04/29 11:14:42;;;;;;;5.80;3.90;;;16.40;62.80;;;;;;5033135;28;20052;-66
2023/04/29 11:17:14;;;;;;;6.47;3.67;;;16.40;63.00;;;;;;5032582;28;20502;-65
2023/04/29 11:19:48;;;;;;;;;;;16.40;63.00;;;;;;5033273;28;20029;-66
2023/04/29 11:22:16;;;;;;;5.93;4.10;;;16.50;63.20;;;;;;5032748;28;19913;-66
2023/04/29 11:24:52;;;;;;;4.28;3.20;;;16.50;62.80;;;;;;5032814;28;20456;-66
2023/04/29 11:27:21;;;;;;;5.43;3.80;;;16.50;62.80;;;;;;5034120;28;20740;-66
2023/04/29 11:29:49;;;;;;;5.38;3.95;;;16.50;62.40;;;;;;5052282;28;20029;-67
2023/04/29 11:32:14;;;;;;;5.75;3.63;;;16.50;62.00;;;;;;5051910;28;20043;-66
2023/04/29 11:34:40;;;;;;;4.63;3.40;;;16.70;62.30;;;;;;5052105;28;20479;-67
2023/04/29 11:37:05;;;;;;;4.43;3.03;;;17.00;62.30;;;;;;5052290;28;20076;-66
2023/04/29 11:39:35;;;;;;;5.45;3.20;;;17.20;62.00;;;;;;5052034;28;20075;-67
2023/04/29 11:42:06;;;;;;;5.53;3.42;;;17.40;61.50;;;;;;5052053;28;20025;-67
2023/04/29 11:44:35;;;;;;;4.07;3.00;;;17.40;60.40;;;;;;5051962;28;20021;-67
2023/04/29 11:47:02;;;;;;;4.97;3.28;;;17.40;60.50;;;;;;5051956;28;20025;-68
2023/04/29 11:49:33;;;;;;;4.55;3.00;;;17.40;60.40;;;;;;5051671;28;20092;-67
2023/04/29 11:51:59;;;;;;;4.07;3.08;;;17.40;60.50;;;;;;5052314;28;20498;-67
2023/04/29 11:54:31;;;;;;;4.28;3.00;;;17.30;59.80;;;;;;5051905;28;20379;-68
2023/04/29 11:57:03;;;;;;;4.47;2.67;;;17.20;59.20;;;;;;5051963;28;20544;-65
2023/04/29 11:59:30;;;;;;;4.45;3.03;;;17.10;58.90;;;;;;5051674;28;20483;-67
2023/04/29 12:01:58;;;;;;;5.18;3.10;;;17.10;58.90;;;;;;5051653;28;20063;-67
2023/04/29 12:04:24;;;;;;;4.32;2.80;;;17.00;58.80;;;;;;5051611;28;20070;-67
2023/04/29 12:06:55;;;;;;;3.53;2.72;;;17.20;58.90;;;;;;5051643;28;20104;-68
2023/04/29 12:09:21;;;;;;;3.83;2.40;;;17.30;57.60;;;;;;5051795;28;20021;-68
2023/04/29 12:11:49;;;;;;;2.80;2.40;;;17.30;57.70;;;;;;5051705;28;20539;-66
2023/04/29 12:14:15;;;;;;;3.45;2.40;;;17.60;58.00;;;;;;5051604;28;20047;-67
2023/04/29 12:16:41;;;;;;;6.70;3.58;;;17.80;58.00;;;;;;5051311;28;20032;-67
2023/04/29 12:19:09;;;;;;;4.45;3.15;;;17.90;57.80;;;;;;5051688;28;20377;-67
2023/04/29 12:21:35;;;;;;;5.13;3.33;;;17.90;57.50;;;;;;5051732;28;20082;-68
2023/04/29 12:24:02;;;;;;;3.97;3.00;;;18.00;57.40;;;;;;5051508;28;20239;-67
2023/04/29 12:26:30;;;;;;;4.70;3.10;;;18.00;57.40;;;;;;5050172;28;20116;-68
2023/04/29 12:28:58;;;;;;;4.78;2.95;;;18.00;57.50;;;;;;5051583;28;20031;-67
2023/04/29 12:31:30;;;;;;;4.95;3.00;;;18.00;57.50;;;;;;5051258;28;20112;-68
2023/04/29 12:33:56;;;;;;;4.50;2.38;;;18.00;57.50;;;;;;5051211;28;20029;-65